Estiva, Brazil
Current Conditions -  °F | °C
As of 2:00 PM on Friday 21 Nov 2014 (Local Time) from SBSJ Reporting Station
Scattered Clouds Scattered Clouds  
Wind Chill: 93°   Ceiling: Unl
Heat Index: 93°   Visibility: 6mi
Dew Point: 54°   Wind: 5mph
Humidity: 26%   Direction: 30°NNE
Pressure: 29.97"   Gusts: NA
Location:  22.46°S, 46.02°W
Report Text: SBSJ 211600Z 03004KT 9999 SCT020 34/12 Q1015
Loading
Personal Weather Stations






























Interactive Weather Map New forecast layout! Learn more

10-Day Weather Forecast

Advertisements
Track Severe Weather on mobile